sensor_id;sensor_type;location;lat;lon;timestamp;P1;durP1;ratioP1;P2;durP2;ratioP2
4909;SDS011;2470;49.868;8.660;2023-04-19T00:00:13;3.30;;;2.33;;
4909;SDS011;2470;49.868;8.660;2023-04-19T00:02:39;3.30;;;2.50;;
4909;SDS011;2470;49.868;8.660;2023-04-19T00:05:06;3.90;;;2.67;;
4909;SDS011;2470;49.868;8.660;2023-04-19T00:07:31;8.67;;;3.17;;
4909;SDS011;2470;49.868;8.660;2023-04-19T00:09:57;4.37;;;2.83;;
4909;SDS011;2470;49.868;8.660;2023-04-19T00:12:23;4.10;;;3.00;;
4909;SDS011;2470;49.868;8.660;2023-04-19T00:14:48;4.60;;;3.13;;
4909;SDS011;2470;49.868;8.660;2023-04-19T00:17:14;2.77;;;2.50;;
4909;SDS011;2470;49.868;8.660;2023-04-19T00:19:40;4.10;;;2.13;;
4909;SDS011;2470;49.868;8.660;2023-04-19T00:22:05;2.90;;;2.30;;
4909;SDS011;2470;49.868;8.660;2023-04-19T00:24:31;10.80;;;2.67;;
4909;SDS011;2470;49.868;8.660;2023-04-19T00:26:57;5.40;;;3.27;;
4909;SDS011;2470;49.868;8.660;2023-04-19T00:29:23;4.27;;;2.80;;
4909;SDS011;2470;49.868;8.660;2023-04-19T00:31:48;5.00;;;2.57;;
4909;SDS011;2470;49.868;8.660;2023-04-19T00:34:14;3.00;;;2.43;;
4909;SDS011;2470;49.868;8.660;2023-04-19T00:36:39;2.83;;;2.53;;
4909;SDS011;2470;49.868;8.660;2023-04-19T00:39:05;2.80;;;2.17;;
4909;SDS011;2470;49.868;8.660;2023-04-19T00:41:30;3.37;;;2.33;;
4909;SDS011;2470;49.868;8.660;2023-04-19T00:43:56;5.30;;;3.20;;
4909;SDS011;2470;49.868;8.660;2023-04-19T00:46:21;8.47;;;3.27;;
4909;SDS011;2470;49.868;8.660;2023-04-19T00:48:47;2.50;;;2.13;;
4909;SDS011;2470;49.868;8.660;2023-04-19T00:51:14;4.03;;;2.87;;
4909;SDS011;2470;49.868;8.660;2023-04-19T00:53:40;4.00;;;2.57;;
4909;SDS011;2470;49.868;8.660;2023-04-19T00:56:05;5.60;;;2.70;;
4909;SDS011;2470;49.868;8.660;2023-04-19T00:58:32;5.03;;;2.93;;
4909;SDS011;2470;49.868;8.660;2023-04-19T01:00:57;2.80;;;2.50;;
4909;SDS011;2470;49.868;8.660;2023-04-19T01:03:24;4.10;;;2.40;;
4909;SDS011;2470;49.868;8.660;2023-04-19T01:05:53;4.80;;;2.70;;
4909;SDS011;2470;49.868;8.660;2023-04-19T01:08:19;4.23;;;2.87;;
4909;SDS011;2470;49.868;8.660;2023-04-19T01:10:44;7.50;;;2.90;;
4909;SDS011;2470;49.868;8.660;2023-04-19T01:13:10;4.10;;;2.30;;
4909;SDS011;2470;49.868;8.660;2023-04-19T01:15:36;3.17;;;2.70;;
4909;SDS011;2470;49.868;8.660;2023-04-19T01:18:01;3.53;;;2.57;;
4909;SDS011;2470;49.868;8.660;2023-04-19T01:20:27;3.63;;;2.63;;
4909;SDS011;2470;49.868;8.660;2023-04-19T01:22:53;4.50;;;2.37;;
4909;SDS011;2470;49.868;8.660;2023-04-19T01:25:18;2.60;;;2.30;;
4909;SDS011;2470;49.868;8.660;2023-04-19T01:27:44;4.97;;;3.00;;
4909;SDS011;2470;49.868;8.660;2023-04-19T01:30:10;3.17;;;2.47;;
4909;SDS011;2470;49.868;8.660;2023-04-19T01:32:35;3.57;;;2.70;;
4909;SDS011;2470;49.868;8.660;2023-04-19T01:35:01;4.70;;;2.50;;
4909;SDS011;2470;49.868;8.660;2023-04-19T01:37:26;2.40;;;2.13;;
4909;SDS011;2470;49.868;8.660;2023-04-19T01:39:52;4.37;;;2.63;;
4909;SDS011;2470;49.868;8.660;2023-04-19T01:42:17;2.80;;;2.20;;
4909;SDS011;2470;49.868;8.660;2023-04-19T01:44:43;2.77;;;2.40;;
4909;SDS011;2470;49.868;8.660;2023-04-19T01:47:08;5.40;;;3.07;;
4909;SDS011;2470;49.868;8.660;2023-04-19T01:49:34;4.30;;;2.27;;
4909;SDS011;2470;49.868;8.660;2023-04-19T01:52:00;5.00;;;2.70;;
4909;SDS011;2470;49.868;8.660;2023-04-19T01:54:25;7.53;;;2.43;;
4909;SDS011;2470;49.868;8.660;2023-04-19T01:56:51;2.80;;;2.43;;
4909;SDS011;2470;49.868;8.660;2023-04-19T01:59:16;4.37;;;2.50;;
4909;SDS011;2470;49.868;8.660;2023-04-19T02:01:42;2.60;;;2.37;;
4909;SDS011;2470;49.868;8.660;2023-04-19T02:04:09;3.97;;;2.53;;
4909;SDS011;2470;49.868;8.660;2023-04-19T02:06:34;4.90;;;2.63;;
4909;SDS011;2470;49.868;8.660;2023-04-19T02:09:00;3.93;;;2.70;;
4909;SDS011;2470;49.868;8.660;2023-04-19T02:11:25;4.30;;;2.40;;
4909;SDS011;2470;49.868;8.660;2023-04-19T02:13:51;2.93;;;2.63;;
4909;SDS011;2470;49.868;8.660;2023-04-19T02:16:16;4.10;;;2.50;;
4909;SDS011;2470;49.868;8.660;2023-04-19T02:18:42;3.77;;;2.90;;
4909;SDS011;2470;49.868;8.660;2023-04-19T02:21:08;2.97;;;2.47;;
4909;SDS011;2470;49.868;8.660;2023-04-19T02:23:34;2.90;;;2.57;;
4909;SDS011;2470;49.868;8.660;2023-04-19T02:26:00;2.73;;;2.20;;
4909;SDS011;2470;49.868;8.660;2023-04-19T02:28:29;6.97;;;2.87;;
4909;SDS011;2470;49.868;8.660;2023-04-19T02:30:55;3.27;;;2.57;;
4909;SDS011;2470;49.868;8.660;2023-04-19T02:33:21;8.20;;;3.43;;
4909;SDS011;2470;49.868;8.660;2023-04-19T02:35:47;4.13;;;3.30;;
4909;SDS011;2470;49.868;8.660;2023-04-19T02:38:13;3.37;;;3.03;;
4909;SDS011;2470;49.868;8.660;2023-04-19T02:40:38;3.10;;;2.10;;
4909;SDS011;2470;49.868;8.660;2023-04-19T02:43:04;4.13;;;2.73;;
4909;SDS011;2470;49.868;8.660;2023-04-19T02:45:29;2.80;;;2.43;;
4909;SDS011;2470;49.868;8.660;2023-04-19T02:47:55;4.50;;;2.37;;
4909;SDS011;2470;49.868;8.660;2023-04-19T02:50:21;3.50;;;2.87;;
4909;SDS011;2470;49.868;8.660;2023-04-19T02:52:46;4.37;;;2.93;;
4909;SDS011;2470;49.868;8.660;2023-04-19T02:55:11;3.80;;;2.90;;
4909;SDS011;2470;49.868;8.660;2023-04-19T02:57:37;3.37;;;2.73;;
4909;SDS011;2470;49.868;8.660;2023-04-19T03:00:03;3.50;;;2.53;;
4909;SDS011;2470;49.868;8.660;2023-04-19T03:02:29;4.10;;;3.17;;
4909;SDS011;2470;49.868;8.660;2023-04-19T03:04:55;3.97;;;2.87;;
4909;SDS011;2470;49.868;8.660;2023-04-19T03:07:20;4.10;;;2.93;;
4909;SDS011;2470;49.868;8.660;2023-04-19T03:09:46;5.20;;;2.80;;
4909;SDS011;2470;49.868;8.660;2023-04-19T03:12:12;3.60;;;2.77;;
4909;SDS011;2470;49.868;8.660;2023-04-19T03:14:37;3.47;;;2.60;;
4909;SDS011;2470;49.868;8.660;2023-04-19T03:17:03;3.93;;;2.80;;
4909;SDS011;2470;49.868;8.660;2023-04-19T03:19:28;3.60;;;2.57;;
4909;SDS011;2470;49.868;8.660;2023-04-19T03:21:54;4.13;;;2.50;;
4909;SDS011;2470;49.868;8.660;2023-04-19T03:24:25;5.93;;;3.10;;
4909;SDS011;2470;49.868;8.660;2023-04-19T03:26:53;4.23;;;3.00;;
4909;SDS011;2470;49.868;8.660;2023-04-19T03:29:18;3.27;;;2.27;;
4909;SDS011;2470;49.868;8.660;2023-04-19T03:31:44;4.80;;;3.00;;
4909;SDS011;2470;49.868;8.660;2023-04-19T03:34:09;7.30;;;3.87;;
4909;SDS011;2470;49.868;8.660;2023-04-19T03:36:35;4.60;;;3.17;;
4909;SDS011;2470;49.868;8.660;2023-04-19T03:39:01;4.20;;;2.63;;
4909;SDS011;2470;49.868;8.660;2023-04-19T03:41:27;5.60;;;3.50;;
4909;SDS011;2470;49.868;8.660;2023-04-19T03:43:53;6.47;;;3.30;;
4909;SDS011;2470;49.868;8.660;2023-04-19T03:46:18;4.40;;;2.73;;
4909;SDS011;2470;49.868;8.660;2023-04-19T03:48:44;5.57;;;3.50;;
4909;SDS011;2470;49.868;8.660;2023-04-19T03:51:09;5.70;;;3.47;;
4909;SDS011;2470;49.868;8.660;2023-04-19T03:53:35;5.40;;;3.37;;
4909;SDS011;2470;49.868;8.660;2023-04-19T03:56:01;4.10;;;2.93;;
4909;SDS011;2470;49.868;8.660;2023-04-19T03:58:26;5.47;;;3.33;;
4909;SDS011;2470;49.868;8.660;2023-04-19T04:00:52;3.50;;;2.80;;
4909;SDS011;2470;49.868;8.660;2023-04-19T04:03:17;3.80;;;3.00;;
4909;SDS011;2470;49.868;8.660;2023-04-19T04:05:43;5.90;;;3.00;;
4909;SDS011;2470;49.868;8.660;2023-04-19T04:08:09;4.53;;;3.40;;
4909;SDS011;2470;49.868;8.660;2023-04-19T04:10:34;5.00;;;3.50;;
4909;SDS011;2470;49.868;8.660;2023-04-19T04:13:00;5.23;;;3.20;;
4909;SDS011;2470;49.868;8.660;2023-04-19T04:15:25;6.60;;;3.97;;
4909;SDS011;2470;49.868;8.660;2023-04-19T04:17:51;13.07;;;4.03;;
4909;SDS011;2470;49.868;8.660;2023-04-19T04:20:17;5.13;;;3.40;;
4909;SDS011;2470;49.868;8.660;2023-04-19T04:22:42;6.70;;;3.90;;
4909;SDS011;2470;49.868;8.660;2023-04-19T04:25:10;3.40;;;3.10;;
4909;SDS011;2470;49.868;8.660;2023-04-19T04:27:36;6.83;;;3.90;;
4909;SDS011;2470;49.868;8.660;2023-04-19T04:30:02;4.70;;;2.90;;
4909;SDS011;2470;49.868;8.660;2023-04-19T04:32:28;7.00;;;4.00;;
4909;SDS011;2470;49.868;8.660;2023-04-19T04:34:53;9.60;;;4.13;;
4909;SDS011;2470;49.868;8.660;2023-04-19T04:37:19;6.70;;;3.80;;
4909;SDS011;2470;49.868;8.660;2023-04-19T04:39:45;7.33;;;4.20;;
4909;SDS011;2470;49.868;8.660;2023-04-19T04:42:10;6.70;;;4.07;;
4909;SDS011;2470;49.868;8.660;2023-04-19T04:44:36;9.80;;;4.67;;
4909;SDS011;2470;49.868;8.660;2023-04-19T04:47:02;6.23;;;4.23;;
4909;SDS011;2470;49.868;8.660;2023-04-19T04:49:28;20.63;;;4.90;;
4909;SDS011;2470;49.868;8.660;2023-04-19T04:51:54;10.50;;;5.07;;
4909;SDS011;2470;49.868;8.660;2023-04-19T04:54:19;8.10;;;4.53;;
4909;SDS011;2470;49.868;8.660;2023-04-19T04:56:45;6.40;;;4.13;;
4909;SDS011;2470;49.868;8.660;2023-04-19T04:59:11;10.33;;;4.97;;
4909;SDS011;2470;49.868;8.660;2023-04-19T05:01:36;7.00;;;4.60;;
4909;SDS011;2470;49.868;8.660;2023-04-19T05:04:02;8.87;;;4.77;;
4909;SDS011;2470;49.868;8.660;2023-04-19T05:06:27;9.73;;;4.53;;
4909;SDS011;2470;49.868;8.660;2023-04-19T05:08:53;8.10;;;4.87;;
4909;SDS011;2470;49.868;8.660;2023-04-19T05:11:19;8.73;;;4.53;;
4909;SDS011;2470;49.868;8.660;2023-04-19T05:13:44;7.80;;;4.30;;
4909;SDS011;2470;49.868;8.660;2023-04-19T05:16:10;9.90;;;5.50;;
4909;SDS011;2470;49.868;8.660;2023-04-19T05:18:35;11.30;;;4.93;;
4909;SDS011;2470;49.868;8.660;2023-04-19T05:21:01;13.40;;;5.50;;
4909;SDS011;2470;49.868;8.660;2023-04-19T05:23:26;7.63;;;4.40;;
4909;SDS011;2470;49.868;8.660;2023-04-19T05:25:52;11.30;;;4.97;;
4909;SDS011;2470;49.868;8.660;2023-04-19T05:28:17;8.87;;;4.83;;
4909;SDS011;2470;49.868;8.660;2023-04-19T05:30:43;6.80;;;4.20;;
4909;SDS011;2470;49.868;8.660;2023-04-19T05:33:08;7.90;;;4.60;;
4909;SDS011;2470;49.868;8.660;2023-04-19T05:35:34;10.67;;;5.10;;
4909;SDS011;2470;49.868;8.660;2023-04-19T05:38:03;8.73;;;4.80;;
4909;SDS011;2470;49.868;8.660;2023-04-19T05:40:28;8.03;;;4.90;;
4909;SDS011;2470;49.868;8.660;2023-04-19T05:42:54;11.30;;;5.80;;
4909;SDS011;2470;49.868;8.660;2023-04-19T05:45:20;9.30;;;5.60;;
4909;SDS011;2470;49.868;8.660;2023-04-19T05:47:46;12.90;;;5.43;;
4909;SDS011;2470;49.868;8.660;2023-04-19T05:50:11;7.60;;;4.80;;
4909;SDS011;2470;49.868;8.660;2023-04-19T05:52:38;8.23;;;5.33;;
4909;SDS011;2470;49.868;8.660;2023-04-19T05:55:04;11.43;;;5.70;;
4909;SDS011;2470;49.868;8.660;2023-04-19T05:57:30;7.67;;;4.67;;
4909;SDS011;2470;49.868;8.660;2023-04-19T05:59:56;13.13;;;5.33;;
4909;SDS011;2470;49.868;8.660;2023-04-19T06:02:21;7.73;;;5.10;;
4909;SDS011;2470;49.868;8.660;2023-04-19T06:04:47;9.57;;;5.40;;
4909;SDS011;2470;49.868;8.660;2023-04-19T06:07:13;10.97;;;5.97;;
4909;SDS011;2470;49.868;8.660;2023-04-19T06:09:38;10.67;;;5.37;;
4909;SDS011;2470;49.868;8.660;2023-04-19T06:12:04;8.37;;;4.67;;
4909;SDS011;2470;49.868;8.660;2023-04-19T06:14:29;8.30;;;5.53;;
4909;SDS011;2470;49.868;8.660;2023-04-19T06:16:55;9.57;;;5.93;;
4909;SDS011;2470;49.868;8.660;2023-04-19T06:19:21;11.73;;;5.87;;
4909;SDS011;2470;49.868;8.660;2023-04-19T06:21:47;6.53;;;4.70;;
4909;SDS011;2470;49.868;8.660;2023-04-19T06:24:13;10.00;;;5.53;;
4909;SDS011;2470;49.868;8.660;2023-04-19T06:26:39;11.03;;;6.20;;
4909;SDS011;2470;49.868;8.660;2023-04-19T06:29:04;12.17;;;6.80;;
4909;SDS011;2470;49.868;8.660;2023-04-19T06:31:30;9.80;;;4.60;;
4909;SDS011;2470;49.868;8.660;2023-04-19T06:33:56;12.33;;;5.20;;
4909;SDS011;2470;49.868;8.660;2023-04-19T06:36:22;8.20;;;4.87;;
4909;SDS011;2470;49.868;8.660;2023-04-19T06:38:48;27.77;;;7.70;;
4909;SDS011;2470;49.868;8.660;2023-04-19T06:41:14;11.13;;;6.00;;
4909;SDS011;2470;49.868;8.660;2023-04-19T06:43:39;34.33;;;7.33;;
4909;SDS011;2470;49.868;8.660;2023-04-19T06:46:06;12.50;;;5.30;;
4909;SDS011;2470;49.868;8.660;2023-04-19T06:48:33;13.20;;;6.37;;
4909;SDS011;2470;49.868;8.660;2023-04-19T06:50:59;12.47;;;6.07;;
4909;SDS011;2470;49.868;8.660;2023-04-19T06:53:24;9.07;;;5.63;;
4909;SDS011;2470;49.868;8.660;2023-04-19T06:56:00;13.10;;;5.60;;
4909;SDS011;2470;49.868;8.660;2023-04-19T06:58:28;16.43;;;5.70;;
4909;SDS011;2470;49.868;8.660;2023-04-19T07:00:54;12.73;;;6.57;;
4909;SDS011;2470;49.868;8.660;2023-04-19T07:03:20;15.10;;;6.40;;
4909;SDS011;2470;49.868;8.660;2023-04-19T07:05:45;14.47;;;6.50;;
4909;SDS011;2470;49.868;8.660;2023-04-19T07:08:11;8.13;;;5.63;;
4909;SDS011;2470;49.868;8.660;2023-04-19T07:10:37;7.80;;;4.83;;
4909;SDS011;2470;49.868;8.660;2023-04-19T07:13:02;10.00;;;5.17;;
4909;SDS011;2470;49.868;8.660;2023-04-19T07:15:28;11.53;;;5.60;;
4909;SDS011;2470;49.868;8.660;2023-04-19T07:17:53;13.40;;;5.00;;
4909;SDS011;2470;49.868;8.660;2023-04-19T07:20:19;11.90;;;6.90;;
4909;SDS011;2470;49.868;8.660;2023-04-19T07:22:45;9.00;;;4.93;;
4909;SDS011;2470;49.868;8.660;2023-04-19T07:25:11;10.93;;;5.33;;
4909;SDS011;2470;49.868;8.660;2023-04-19T07:27:37;8.60;;;4.63;;
4909;SDS011;2470;49.868;8.660;2023-04-19T07:30:02;9.03;;;5.10;;
4909;SDS011;2470;49.868;8.660;2023-04-19T07:32:29;11.50;;;4.23;;
4909;SDS011;2470;49.868;8.660;2023-04-19T07:34:55;10.40;;;4.60;;
4909;SDS011;2470;49.868;8.660;2023-04-19T07:37:21;10.73;;;4.30;;
4909;SDS011;2470;49.868;8.660;2023-04-19T07:39:46;14.03;;;5.93;;
4909;SDS011;2470;49.868;8.660;2023-04-19T07:42:12;7.60;;;3.90;;
4909;SDS011;2470;49.868;8.660;2023-04-19T07:44:37;8.33;;;4.67;;
4909;SDS011;2470;49.868;8.660;2023-04-19T07:47:03;4.73;;;3.40;;
4909;SDS011;2470;49.868;8.660;2023-04-19T07:49:31;13.37;;;5.43;;
4909;SDS011;2470;49.868;8.660;2023-04-19T07:52:01;7.97;;;4.40;;
4909;SDS011;2470;49.868;8.660;2023-04-19T07:54:27;18.80;;;5.83;;
4909;SDS011;2470;49.868;8.660;2023-04-19T07:56:53;23.23;;;9.50;;
4909;SDS011;2470;49.868;8.660;2023-04-19T07:59:18;24.87;;;9.43;;
4909;SDS011;2470;49.868;8.660;2023-04-19T08:01:44;16.40;;;8.93;;
4909;SDS011;2470;49.868;8.660;2023-04-19T08:04:10;12.13;;;5.80;;
4909;SDS011;2470;49.868;8.660;2023-04-19T08:06:36;10.53;;;4.77;;
4909;SDS011;2470;49.868;8.660;2023-04-19T08:09:03;11.73;;;6.40;;
4909;SDS011;2470;49.868;8.660;2023-04-19T08:11:29;19.80;;;7.20;;
4909;SDS011;2470;49.868;8.660;2023-04-19T08:13:55;18.00;;;8.77;;
4909;SDS011;2470;49.868;8.660;2023-04-19T08:16:20;11.70;;;6.03;;
4909;SDS011;2470;49.868;8.660;2023-04-19T08:18:47;9.97;;;5.40;;
4909;SDS011;2470;49.868;8.660;2023-04-19T08:21:15;4.67;;;3.27;;
4909;SDS011;2470;49.868;8.660;2023-04-19T08:23:41;10.43;;;4.93;;
4909;SDS011;2470;49.868;8.660;2023-04-19T08:26:06;13.20;;;5.83;;
4909;SDS011;2470;49.868;8.660;2023-04-19T08:28:32;19.63;;;8.00;;
4909;SDS011;2470;49.868;8.660;2023-04-19T08:30:57;14.60;;;5.93;;
4909;SDS011;2470;49.868;8.660;2023-04-19T08:33:23;10.30;;;5.07;;
4909;SDS011;2470;49.868;8.660;2023-04-19T08:35:49;35.87;;;12.90;;
4909;SDS011;2470;49.868;8.660;2023-04-19T08:38:14;9.97;;;6.20;;
4909;SDS011;2470;49.868;8.660;2023-04-19T08:40:40;11.30;;;5.10;;
4909;SDS011;2470;49.868;8.660;2023-04-19T08:43:17;9.00;;;4.30;;
4909;SDS011;2470;49.868;8.660;2023-04-19T08:45:47;10.13;;;4.37;;
4909;SDS011;2470;49.868;8.660;2023-04-19T08:48:14;13.63;;;7.07;;
4909;SDS011;2470;49.868;8.660;2023-04-19T08:50:41;5.10;;;3.37;;
4909;SDS011;2470;49.868;8.660;2023-04-19T08:53:07;6.83;;;2.93;;
4909;SDS011;2470;49.868;8.660;2023-04-19T08:55:35;6.40;;;4.20;;
4909;SDS011;2470;49.868;8.660;2023-04-19T08:58:03;6.87;;;3.30;;
4909;SDS011;2470;49.868;8.660;2023-04-19T09:00:29;5.47;;;3.67;;
4909;SDS011;2470;49.868;8.660;2023-04-19T09:02:57;6.93;;;3.63;;
4909;SDS011;2470;49.868;8.660;2023-04-19T09:05:23;4.80;;;3.43;;
4909;SDS011;2470;49.868;8.660;2023-04-19T09:07:48;9.20;;;3.87;;
4909;SDS011;2470;49.868;8.660;2023-04-19T09:10:15;6.77;;;3.93;;
4909;SDS011;2470;49.868;8.660;2023-04-19T09:12:42;21.70;;;3.63;;
4909;SDS011;2470;49.868;8.660;2023-04-19T09:15:34;8.33;;;4.77;;
4909;SDS011;2470;49.868;8.660;2023-04-19T09:18:05;14.60;;;4.33;;
4909;SDS011;2470;49.868;8.660;2023-04-19T09:20:35;9.55;;;4.30;;
4909;SDS011;2470;49.868;8.660;2023-04-19T09:23:04;8.60;;;4.73;;
4909;SDS011;2470;49.868;8.660;2023-04-19T09:25:32;6.70;;;3.13;;
4909;SDS011;2470;49.868;8.660;2023-04-19T09:28:07;8.65;;;3.38;;
4909;SDS011;2470;49.868;8.660;2023-04-19T09:30:37;22.85;;;10.85;;
4909;SDS011;2470;49.868;8.660;2023-04-19T09:33:03;5.13;;;4.17;;
4909;SDS011;2470;49.868;8.660;2023-04-19T09:35:42;5.65;;;3.60;;
4909;SDS011;2470;49.868;8.660;2023-04-19T09:38:11;6.50;;;4.40;;
4909;SDS011;2470;49.868;8.660;2023-04-19T09:40:37;6.25;;;3.72;;
4909;SDS011;2470;49.868;8.660;2023-04-19T09:43:03;4.22;;;2.63;;
4909;SDS011;2470;49.868;8.660;2023-04-19T09:45:41;3.53;;;2.30;;
4909;SDS011;2470;49.868;8.660;2023-04-19T09:48:09;3.55;;;3.17;;
4909;SDS011;2470;49.868;8.660;2023-04-19T09:50:35;5.47;;;2.75;;
4909;SDS011;2470;49.868;8.660;2023-04-19T09:53:15;7.35;;;4.55;;
4909;SDS011;2470;49.868;8.660;2023-04-19T09:55:42;5.43;;;3.08;;
4909;SDS011;2470;49.868;8.660;2023-04-19T09:58:08;5.43;;;3.20;;
4909;SDS011;2470;49.868;8.660;2023-04-19T10:00:33;4.30;;;2.78;;
4909;SDS011;2470;49.868;8.660;2023-04-19T10:03:00;2.90;;;2.30;;
4909;SDS011;2470;49.868;8.660;2023-04-19T10:05:28;3.00;;;2.35;;
4909;SDS011;2470;49.868;8.660;2023-04-19T10:07:54;9.82;;;3.33;;
4909;SDS011;2470;49.868;8.660;2023-04-19T10:10:23;5.90;;;2.97;;
4909;SDS011;2470;49.868;8.660;2023-04-19T10:12:50;5.68;;;2.95;;
4909;SDS011;2470;49.868;8.660;2023-04-19T10:15:19;3.35;;;2.45;;
4909;SDS011;2470;49.868;8.660;2023-04-19T10:17:46;4.95;;;2.95;;
4909;SDS011;2470;49.868;8.660;2023-04-19T10:20:16;4.68;;;2.88;;
4909;SDS011;2470;49.868;8.660;2023-04-19T10:22:46;6.72;;;3.42;;
4909;SDS011;2470;49.868;8.660;2023-04-19T10:25:13;3.92;;;2.35;;
4909;SDS011;2470;49.868;8.660;2023-04-19T10:27:41;3.83;;;2.50;;
4909;SDS011;2470;49.868;8.660;2023-04-19T10:30:22;3.42;;;2.88;;
4909;SDS011;2470;49.868;8.660;2023-04-19T10:32:51;6.35;;;2.97;;
4909;SDS011;2470;49.868;8.660;2023-04-19T10:35:23;5.95;;;2.33;;
4909;SDS011;2470;49.868;8.660;2023-04-19T10:38:03;5.57;;;2.70;;
4909;SDS011;2470;49.868;8.660;2023-04-19T10:43:19;8.10;;;2.40;;
4909;SDS011;2470;49.868;8.660;2023-04-19T10:45:45;6.60;;;2.47;;
4909;SDS011;2470;49.868;8.660;2023-04-19T10:50:57;4.03;;;2.50;;
4909;SDS011;2470;49.868;8.660;2023-04-19T10:56:16;4.57;;;2.95;;
4909;SDS011;2470;49.868;8.660;2023-04-19T11:01:46;3.13;;;2.35;;
4909;SDS011;2470;49.868;8.660;2023-04-19T11:04:24;3.38;;;2.55;;
4909;SDS011;2470;49.868;8.660;2023-04-19T11:07:14;4.60;;;2.85;;
4909;SDS011;2470;49.868;8.660;2023-04-19T11:09:45;4.13;;;2.65;;
4909;SDS011;2470;49.868;8.660;2023-04-19T11:12:12;4.25;;;3.47;;
4909;SDS011;2470;49.868;8.660;2023-04-19T11:14:40;4.28;;;2.72;;
4909;SDS011;2470;49.868;8.660;2023-04-19T11:17:16;4.15;;;2.72;;
4909;SDS011;2470;49.868;8.660;2023-04-19T11:19:53;3.28;;;2.40;;
4909;SDS011;2470;49.868;8.660;2023-04-19T11:25:18;5.45;;;3.53;;
4909;SDS011;2470;49.868;8.660;2023-04-19T11:27:46;4.15;;;2.65;;
4909;SDS011;2470;49.868;8.660;2023-04-19T11:30:14;2.40;;;2.00;;
4909;SDS011;2470;49.868;8.660;2023-04-19T11:32:52;2.53;;;2.13;;
4909;SDS011;2470;49.868;8.660;2023-04-19T11:35:23;11.05;;;3.00;;
4909;SDS011;2470;49.868;8.660;2023-04-19T11:37:52;2.80;;;2.33;;
4909;SDS011;2470;49.868;8.660;2023-04-19T11:40:20;2.90;;;2.40;;
4909;SDS011;2470;49.868;8.660;2023-04-19T11:42:52;2.28;;;2.08;;
4909;SDS011;2470;49.868;8.660;2023-04-19T11:45:32;5.05;;;3.22;;
4909;SDS011;2470;49.868;8.660;2023-04-19T11:48:00;6.25;;;3.65;;
4909;SDS011;2470;49.868;8.660;2023-04-19T11:53:01;4.10;;;2.63;;
4909;SDS011;2470;49.868;8.660;2023-04-19T11:55:44;4.68;;;3.08;;
4909;SDS011;2470;49.868;8.660;2023-04-19T11:58:24;6.38;;;2.78;;
4909;SDS011;2470;49.868;8.660;2023-04-19T12:00:52;2.78;;;2.03;;
4909;SDS011;2470;49.868;8.660;2023-04-19T12:03:20;3.58;;;2.50;;
4909;SDS011;2470;49.868;8.660;2023-04-19T12:05:52;3.70;;;2.30;;
4909;SDS011;2470;49.868;8.660;2023-04-19T12:08:28;3.70;;;2.10;;
4909;SDS011;2470;49.868;8.660;2023-04-19T12:10:56;2.15;;;1.83;;
4909;SDS011;2470;49.868;8.660;2023-04-19T12:13:23;2.40;;;1.90;;
4909;SDS011;2470;49.868;8.660;2023-04-19T12:15:50;3.83;;;2.28;;
4909;SDS011;2470;49.868;8.660;2023-04-19T12:18:16;4.78;;;3.35;;
4909;SDS011;2470;49.868;8.660;2023-04-19T12:20:45;5.78;;;3.03;;
4909;SDS011;2470;49.868;8.660;2023-04-19T12:23:13;15.48;;;6.28;;
4909;SDS011;2470;49.868;8.660;2023-04-19T12:25:40;8.38;;;3.30;;
4909;SDS011;2470;49.868;8.660;2023-04-19T12:28:06;3.08;;;1.95;;
4909;SDS011;2470;49.868;8.660;2023-04-19T12:30:32;5.65;;;3.78;;
4909;SDS011;2470;49.868;8.660;2023-04-19T12:33:00;6.70;;;2.90;;
4909;SDS011;2470;49.868;8.660;2023-04-19T12:35:26;5.57;;;2.97;;
4909;SDS011;2470;49.868;8.660;2023-04-19T12:37:52;2.25;;;1.95;;
4909;SDS011;2470;49.868;8.660;2023-04-19T12:40:19;5.63;;;3.45;;
4909;SDS011;2470;49.868;8.660;2023-04-19T12:42:46;5.80;;;2.30;;
4909;SDS011;2470;49.868;8.660;2023-04-19T12:45:11;4.60;;;2.00;;
4909;SDS011;2470;49.868;8.660;2023-04-19T12:47:38;4.55;;;3.05;;
4909;SDS011;2470;49.868;8.660;2023-04-19T12:50:04;2.65;;;1.98;;
4909;SDS011;2470;49.868;8.660;2023-04-19T12:52:31;3.92;;;1.60;;
4909;SDS011;2470;49.868;8.660;2023-04-19T12:54:56;1.08;;;1.08;;
4909;SDS011;2470;49.868;8.660;2023-04-19T12:57:22;4.20;;;2.75;;
4909;SDS011;2470;49.868;8.660;2023-04-19T12:59:47;3.47;;;2.70;;
4909;SDS011;2470;49.868;8.660;2023-04-19T13:02:13;1.30;;;1.20;;
4909;SDS011;2470;49.868;8.660;2023-04-19T13:04:39;1.35;;;1.13;;
4909;SDS011;2470;49.868;8.660;2023-04-19T13:07:04;3.13;;;1.50;;
4909;SDS011;2470;49.868;8.660;2023-04-19T13:09:30;3.58;;;1.55;;
4909;SDS011;2470;49.868;8.660;2023-04-19T13:11:55;3.92;;;1.70;;
4909;SDS011;2470;49.868;8.660;2023-04-19T13:14:22;1.63;;;1.33;;
4909;SDS011;2470;49.868;8.660;2023-04-19T13:16:47;1.50;;;1.40;;
4909;SDS011;2470;49.868;8.660;2023-04-19T13:19:13;1.30;;;1.20;;
4909;SDS011;2470;49.868;8.660;2023-04-19T13:21:40;1.17;;;0.90;;
4909;SDS011;2470;49.868;8.660;2023-04-19T13:24:06;8.75;;;2.05;;
4909;SDS011;2470;49.868;8.660;2023-04-19T13:26:31;1.42;;;1.30;;
4909;SDS011;2470;49.868;8.660;2023-04-19T13:28:58;1.98;;;1.70;;
4909;SDS011;2470;49.868;8.660;2023-04-19T13:31:24;2.88;;;2.63;;
4909;SDS011;2470;49.868;8.660;2023-04-19T13:33:50;1.02;;;0.93;;
4909;SDS011;2470;49.868;8.660;2023-04-19T13:36:16;1.38;;;1.27;;
4909;SDS011;2470;49.868;8.660;2023-04-19T13:38:42;1.13;;;1.08;;
4909;SDS011;2470;49.868;8.660;2023-04-19T13:41:08;1.95;;;1.25;;
4909;SDS011;2470;49.868;8.660;2023-04-19T13:43:34;1.00;;;0.90;;
4909;SDS011;2470;49.868;8.660;2023-04-19T13:45:59;1.30;;;1.20;;
4909;SDS011;2470;49.868;8.660;2023-04-19T13:48:25;2.22;;;1.40;;
4909;SDS011;2470;49.868;8.660;2023-04-19T13:50:53;2.22;;;1.58;;
4909;SDS011;2470;49.868;8.660;2023-04-19T13:53:19;6.05;;;1.58;;
4909;SDS011;2470;49.868;8.660;2023-04-19T13:55:44;2.40;;;1.35;;
4909;SDS011;2470;49.868;8.660;2023-04-19T13:58:10;1.60;;;1.50;;
4909;SDS011;2470;49.868;8.660;2023-04-19T14:00:35;1.20;;;0.90;;
4909;SDS011;2470;49.868;8.660;2023-04-19T14:03:01;1.17;;;1.08;;
4909;SDS011;2470;49.868;8.660;2023-04-19T14:05:27;1.60;;;1.23;;
4909;SDS011;2470;49.868;8.660;2023-04-19T14:07:52;3.78;;;1.40;;
4909;SDS011;2470;49.868;8.660;2023-04-19T14:10:18;1.23;;;1.13;;
4909;SDS011;2470;49.868;8.660;2023-04-19T14:12:43;1.92;;;1.23;;
4909;SDS011;2470;49.868;8.660;2023-04-19T14:15:10;1.48;;;0.93;;
4909;SDS011;2470;49.868;8.660;2023-04-19T14:17:36;1.55;;;1.20;;
4909;SDS011;2470;49.868;8.660;2023-04-19T14:20:02;2.35;;;1.35;;
4909;SDS011;2470;49.868;8.660;2023-04-19T14:22:29;1.52;;;1.40;;
4909;SDS011;2470;49.868;8.660;2023-04-19T14:24:55;0.80;;;0.80;;
4909;SDS011;2470;49.868;8.660;2023-04-19T14:27:21;6.25;;;1.67;;
4909;SDS011;2470;49.868;8.660;2023-04-19T14:29:46;4.22;;;1.20;;
4909;SDS011;2470;49.868;8.660;2023-04-19T14:32:13;1.70;;;1.10;;
4909;SDS011;2470;49.868;8.660;2023-04-19T14:34:41;1.02;;;1.02;;
4909;SDS011;2470;49.868;8.660;2023-04-19T14:37:07;1.60;;;1.48;;
4909;SDS011;2470;49.868;8.660;2023-04-19T14:39:32;2.92;;;1.42;;
4909;SDS011;2470;49.868;8.660;2023-04-19T14:41:58;2.35;;;1.00;;
4909;SDS011;2470;49.868;8.660;2023-04-19T14:44:24;3.25;;;1.80;;
4909;SDS011;2470;49.868;8.660;2023-04-19T14:46:49;1.88;;;1.20;;
4909;SDS011;2470;49.868;8.660;2023-04-19T14:49:15;3.28;;;1.50;;
4909;SDS011;2470;49.868;8.660;2023-04-19T14:51:41;7.80;;;2.95;;
4909;SDS011;2470;49.868;8.660;2023-04-19T14:54:07;1.83;;;1.73;;
4909;SDS011;2470;49.868;8.660;2023-04-19T14:56:33;3.08;;;1.10;;
4909;SDS011;2470;49.868;8.660;2023-04-19T14:58:58;3.92;;;1.55;;
4909;SDS011;2470;49.868;8.660;2023-04-19T15:01:23;3.22;;;2.20;;
4909;SDS011;2470;49.868;8.660;2023-04-19T15:03:49;4.40;;;2.38;;
4909;SDS011;2470;49.868;8.660;2023-04-19T15:06:15;3.55;;;2.35;;
4909;SDS011;2470;49.868;8.660;2023-04-19T15:08:40;6.55;;;3.45;;
4909;SDS011;2470;49.868;8.660;2023-04-19T15:11:07;5.40;;;2.97;;
4909;SDS011;2470;49.868;8.660;2023-04-19T15:13:33;2.92;;;1.55;;
4909;SDS011;2470;49.868;8.660;2023-04-19T15:15:59;4.93;;;2.15;;
4909;SDS011;2470;49.868;8.660;2023-04-19T15:18:27;4.40;;;1.70;;
4909;SDS011;2470;49.868;8.660;2023-04-19T15:20:53;2.80;;;1.98;;
4909;SDS011;2470;49.868;8.660;2023-04-19T15:23:21;2.40;;;1.80;;
4909;SDS011;2470;49.868;8.660;2023-04-19T15:25:47;4.32;;;2.17;;